sensor_id;sensor_type;location;lat;lon;timestamp;pressure;altitude;pressure_sealevel;temperature
32039;BMP280;18549;42.286;22.688;2023-04-01T00:01:15;94813.50;;;16.29
32039;BMP280;18549;42.286;22.688;2023-04-01T00:03:44;94813.31;;;16.22
32039;BMP280;18549;42.286;22.688;2023-04-01T00:06:12;94810.97;;;16.21
32039;BMP280;18549;42.286;22.688;2023-04-01T00:08:40;94807.69;;;16.20
32039;BMP280;18549;42.286;22.688;2023-04-01T00:11:07;94807.38;;;16.23
32039;BMP280;18549;42.286;22.688;2023-04-01T00:13:34;94813.16;;;16.24
32039;BMP280;18549;42.286;22.688;2023-04-01T00:16:02;94815.53;;;16.25
32039;BMP280;18549;42.286;22.688;2023-04-01T00:18:30;94808.81;;;16.26
32039;BMP280;18549;42.286;22.688;2023-04-01T00:20:59;94813.16;;;16.24
32039;BMP280;18549;42.286;22.688;2023-04-01T00:23:26;94812.28;;;16.08
32039;BMP280;18549;42.286;22.688;2023-04-01T00:25:53;94809.44;;;16.03
32039;BMP280;18549;42.286;22.688;2023-04-01T00:28:20;94803.66;;;16.02
32039;BMP280;18549;42.286;22.688;2023-04-01T00:30:47;94793.50;;;16.04
32039;BMP280;18549;42.286;22.688;2023-04-01T00:33:18;94795.84;;;16.05
32039;BMP280;18549;42.286;22.688;2023-04-01T00:35:45;94789.91;;;16.06
32039;BMP280;18549;42.286;22.688;2023-04-01T00:38:13;94794.00;;;16.07
32039;BMP280;18549;42.286;22.688;2023-04-01T00:40:43;94789.63;;;16.09
32039;BMP280;18549;42.286;22.688;2023-04-01T00:43:14;94791.19;;;16.10
32039;BMP280;18549;42.286;22.688;2023-04-01T00:45:42;94782.41;;;16.06
32039;BMP280;18549;42.286;22.688;2023-04-01T00:48:11;94771.78;;;16.04
32039;BMP280;18549;42.286;22.688;2023-04-01T00:50:43;94775.38;;;16.02
32039;BMP280;18549;42.286;22.688;2023-04-01T00:53:12;94769.59;;;16.01
32039;BMP280;18549;42.286;22.688;2023-04-01T00:55:42;94773.81;;;16.01
32039;BMP280;18549;42.286;22.688;2023-04-01T00:58:14;94768.94;;;15.99
32039;BMP280;18549;42.286;22.688;2023-04-01T01:00:41;94764.72;;;16.00
32039;BMP280;18549;42.286;22.688;2023-04-01T01:03:09;94755.53;;;16.00
32039;BMP280;18549;42.286;22.688;2023-04-01T01:05:50;94758.94;;;15.99
32039;BMP280;18549;42.286;22.688;2023-04-01T01:08:25;94762.19;;;15.92
32039;BMP280;18549;42.286;22.688;2023-04-01T01:10:57;94754.06;;;15.90
32039;BMP280;18549;42.286;22.688;2023-04-01T01:13:30;94758.91;;;15.91
32039;BMP280;18549;42.286;22.688;2023-04-01T01:16:05;94764.31;;;15.79
32039;BMP280;18549;42.286;22.688;2023-04-01T01:18:37;94760.81;;;15.72
32039;BMP280;18549;42.286;22.688;2023-04-01T01:21:30;94750.37;;;15.77
32039;BMP280;18549;42.286;22.688;2023-04-01T01:24:17;94761.91;;;15.70
32039;BMP280;18549;42.286;22.688;2023-04-01T01:26:53;94757.50;;;15.64
32039;BMP280;18549;42.286;22.688;2023-04-01T01:29:48;94754.06;;;15.65
32039;BMP280;18549;42.286;22.688;2023-04-01T01:32:52;94751.44;;;15.66
32039;BMP280;18549;42.286;22.688;2023-04-01T01:35:26;94758.28;;;15.64
32039;BMP280;18549;42.286;22.688;2023-04-01T01:37:56;94758.00;;;15.67
32039;BMP280;18549;42.286;22.688;2023-04-01T01:40:26;94764.72;;;15.67
32039;BMP280;18549;42.286;22.688;2023-04-01T01:43:04;94767.19;;;15.67
32039;BMP280;18549;42.286;22.688;2023-04-01T01:45:34;94752.62;;;15.54
32039;BMP280;18549;42.286;22.688;2023-04-01T01:48:02;94752.75;;;15.53
32039;BMP280;18549;42.286;22.688;2023-04-01T01:50:33;94748.41;;;15.55
32039;BMP280;18549;42.286;22.688;2023-04-01T01:53:03;94742.63;;;15.54
32039;BMP280;18549;42.286;22.688;2023-04-01T01:55:35;94735.63;;;15.58
32039;BMP280;18549;42.286;22.688;2023-04-01T01:58:06;94737.81;;;15.61
32039;BMP280;18549;42.286;22.688;2023-04-01T02:00:34;94726.91;;;15.62
32039;BMP280;18549;42.286;22.688;2023-04-01T02:03:02;94724.09;;;15.65
32039;BMP280;18549;42.286;22.688;2023-04-01T02:05:33;94719.59;;;15.68
32039;BMP280;18549;42.286;22.688;2023-04-01T02:08:03;94728.19;;;15.66
32039;BMP280;18549;42.286;22.688;2023-04-01T02:10:34;94720.81;;;15.64
32039;BMP280;18549;42.286;22.688;2023-04-01T02:13:05;94725.97;;;15.63
32039;BMP280;18549;42.286;22.688;2023-04-01T02:15:39;94717.03;;;15.60
32039;BMP280;18549;42.286;22.688;2023-04-01T02:18:08;94725.16;;;15.54
32039;BMP280;18549;42.286;22.688;2023-04-01T02:20:38;94726.84;;;15.54
32039;BMP280;18549;42.286;22.688;2023-04-01T02:23:07;94715.28;;;15.53
32039;BMP280;18549;42.286;22.688;2023-04-01T02:25:35;94717.50;;;15.56
32039;BMP280;18549;42.286;22.688;2023-04-01T02:28:09;94732.00;;;15.52
32039;BMP280;18549;42.286;22.688;2023-04-01T02:30:39;94736.50;;;15.49
32039;BMP280;18549;42.286;22.688;2023-04-01T02:33:08;94730.28;;;15.53
32039;BMP280;18549;42.286;22.688;2023-04-01T02:35:37;94723.66;;;15.44
32039;BMP280;18549;42.286;22.688;2023-04-01T02:38:05;94711.47;;;15.41
32039;BMP280;18549;42.286;22.688;2023-04-01T02:40:45;94715.97;;;15.38
32039;BMP280;18549;42.286;22.688;2023-04-01T02:43:12;94707.69;;;15.37
32039;BMP280;18549;42.286;22.688;2023-04-01T02:45:40;94702.38;;;15.32
32039;BMP280;18549;42.286;22.688;2023-04-01T02:48:07;94692.38;;;15.32
32039;BMP280;18549;42.286;22.688;2023-04-01T02:50:36;94699.22;;;15.30
32039;BMP280;18549;42.286;22.688;2023-04-01T02:53:03;94694.22;;;15.30
32039;BMP280;18549;42.286;22.688;2023-04-01T02:55:31;94702.72;;;15.37
32039;BMP280;18549;42.286;22.688;2023-04-01T02:58:03;94700.72;;;15.41
32039;BMP280;18549;42.286;22.688;2023-04-01T03:00:31;94700.56;;;15.42
32039;BMP280;18549;42.286;22.688;2023-04-01T03:02:58;94698.69;;;15.44
32039;BMP280;18549;42.286;22.688;2023-04-01T03:05:25;94699.56;;;15.35
32039;BMP280;18549;42.286;22.688;2023-04-01T03:07:53;94690.47;;;15.26
32039;BMP280;18549;42.286;22.688;2023-04-01T03:10:20;94692.94;;;15.26
32039;BMP280;18549;42.286;22.688;2023-04-01T03:12:49;94688.78;;;15.27
32039;BMP280;18549;42.286;22.688;2023-04-01T03:15:17;94688.59;;;15.28
32039;BMP280;18549;42.286;22.688;2023-04-01T03:17:47;94687.38;;;15.32
32039;BMP280;18549;42.286;22.688;2023-04-01T03:20:15;94671.44;;;15.25
32039;BMP280;18549;42.286;22.688;2023-04-01T03:22:42;94665.16;;;15.21
32039;BMP280;18549;42.286;22.688;2023-04-01T03:25:11;94663.81;;;15.27
32039;BMP280;18549;42.286;22.688;2023-04-01T03:27:38;94649.09;;;15.24
32039;BMP280;18549;42.286;22.688;2023-04-01T03:30:06;94649.87;;;15.24
32039;BMP280;18549;42.286;22.688;2023-04-01T03:32:34;94658.00;;;15.26
32039;BMP280;18549;42.286;22.688;2023-04-01T03:35:01;94647.75;;;15.29
32039;BMP280;18549;42.286;22.688;2023-04-01T03:37:28;94661.78;;;15.30
32039;BMP280;18549;42.286;22.688;2023-04-01T03:39:55;94660.84;;;15.31
32039;BMP280;18549;42.286;22.688;2023-04-01T03:42:23;94648.34;;;15.31
32039;BMP280;18549;42.286;22.688;2023-04-01T03:44:50;94645.84;;;15.31
32039;BMP280;18549;42.286;22.688;2023-04-01T03:47:18;94651.66;;;15.32
32039;BMP280;18549;42.286;22.688;2023-04-01T03:49:45;94654.16;;;15.32
32039;BMP280;18549;42.286;22.688;2023-04-01T03:52:12;94647.44;;;15.32
32039;BMP280;18549;42.286;22.688;2023-04-01T03:54:39;94648.34;;;15.31
32039;BMP280;18549;42.286;22.688;2023-04-01T03:57:06;94638.25;;;15.33
32039;BMP280;18549;42.286;22.688;2023-04-01T03:59:34;94628.56;;;15.30
32039;BMP280;18549;42.286;22.688;2023-04-01T04:02:01;94619.66;;;15.27
32039;BMP280;18549;42.286;22.688;2023-04-01T04:04:28;94610.44;;;15.28
32039;BMP280;18549;42.286;22.688;2023-04-01T04:06:56;94613.88;;;15.27
32039;BMP280;18549;42.286;22.688;2023-04-01T04:09:23;94623.88;;;15.27
32039;BMP280;18549;42.286;22.688;2023-04-01T04:11:50;94609.94;;;15.24
32039;BMP280;18549;42.286;22.688;2023-04-01T04:14:17;94603.06;;;15.18
32039;BMP280;18549;42.286;22.688;2023-04-01T04:16:45;94599.94;;;15.17
32039;BMP280;18549;42.286;22.688;2023-04-01T04:19:12;94596.47;;;15.18
32039;BMP280;18549;42.286;22.688;2023-04-01T04:21:39;94596.34;;;15.19
32039;BMP280;18549;42.286;22.688;2023-04-01T04:24:06;94597.13;;;15.19
32039;BMP280;18549;42.286;22.688;2023-04-01T04:26:33;94588.87;;;15.19
32039;BMP280;18549;42.286;22.688;2023-04-01T04:29:01;94583.09;;;15.18
32039;BMP280;18549;42.286;22.688;2023-04-01T04:31:28;94570.12;;;15.15
32039;BMP280;18549;42.286;22.688;2023-04-01T04:33:58;94577.91;;;15.12
32039;BMP280;18549;42.286;22.688;2023-04-01T04:36:25;94574.09;;;15.08
32039;BMP280;18549;42.286;22.688;2023-04-01T04:38:52;94563.31;;;15.00
32039;BMP280;18549;42.286;22.688;2023-04-01T04:41:19;94559.25;;;14.99
32039;BMP280;18549;42.286;22.688;2023-04-01T04:43:51;94557.38;;;15.01
32039;BMP280;18549;42.286;22.688;2023-04-01T04:46:18;94547.41;;;15.01
32039;BMP280;18549;42.286;22.688;2023-04-01T04:48:45;94549.91;;;15.01
32039;BMP280;18549;42.286;22.688;2023-04-01T04:51:17;94543.78;;;14.95
32039;BMP280;18549;42.286;22.688;2023-04-01T04:53:45;94555.12;;;14.90
32039;BMP280;18549;42.286;22.688;2023-04-01T04:56:12;94544.06;;;14.92
32039;BMP280;18549;42.286;22.688;2023-04-01T04:58:39;94546.53;;;14.84
32039;BMP280;18549;42.286;22.688;2023-04-01T05:01:08;94552.59;;;14.82
32039;BMP280;18549;42.286;22.688;2023-04-01T05:03:36;94550.25;;;14.81
32039;BMP280;18549;42.286;22.688;2023-04-01T05:06:04;94535.44;;;14.79
32039;BMP280;18549;42.286;22.688;2023-04-01T05:08:33;94544.63;;;14.79
32039;BMP280;18549;42.286;22.688;2023-04-01T05:11:00;94533.72;;;14.80
32039;BMP280;18549;42.286;22.688;2023-04-01T05:13:27;94538.53;;;14.81
32039;BMP280;18549;42.286;22.688;2023-04-01T05:15:54;94545.25;;;14.81
32039;BMP280;18549;42.286;22.688;2023-04-01T05:18:21;94550.25;;;14.81
32039;BMP280;18549;42.286;22.688;2023-04-01T05:20:49;94548.53;;;14.81
32039;BMP280;18549;42.286;22.688;2023-04-01T05:23:16;94553.47;;;14.73
32039;BMP280;18549;42.286;22.688;2023-04-01T05:25:44;94541.13;;;14.72
32039;BMP280;18549;42.286;22.688;2023-04-01T05:28:11;94531.97;;;14.72
32039;BMP280;18549;42.286;22.688;2023-04-01T05:30:39;94518.44;;;14.83
32039;BMP280;18549;42.286;22.688;2023-04-01T05:33:07;94515.31;;;14.81
32039;BMP280;18549;42.286;22.688;2023-04-01T05:35:34;94500.56;;;14.87
32039;BMP280;18549;42.286;22.688;2023-04-01T05:38:03;94502.28;;;14.94
32039;BMP280;18549;42.286;22.688;2023-04-01T05:40:29;94508.88;;;15.03
32039;BMP280;18549;42.286;22.688;2023-04-01T05:42:58;94503.47;;;15.08
32039;BMP280;18549;42.286;22.688;2023-04-01T05:45:27;94496.66;;;15.18
32039;BMP280;18549;42.286;22.688;2023-04-01T05:47:54;94506.31;;;15.13
32039;BMP280;18549;42.286;22.688;2023-04-01T05:50:21;94494.16;;;15.18
32039;BMP280;18549;42.286;22.688;2023-04-01T05:52:48;94496.84;;;15.24
32039;BMP280;18549;42.286;22.688;2023-04-01T05:55:15;94493.44;;;15.33
32039;BMP280;18549;42.286;22.688;2023-04-01T05:57:44;94483.97;;;15.36
32039;BMP280;18549;42.286;22.688;2023-04-01T06:00:17;94478.66;;;15.39
32039;BMP280;18549;42.286;22.688;2023-04-01T06:02:45;94488.97;;;15.44
32039;BMP280;18549;42.286;22.688;2023-04-01T06:05:15;94496.13;;;15.47
32039;BMP280;18549;42.286;22.688;2023-04-01T06:07:44;94486.16;;;15.47
32039;BMP280;18549;42.286;22.688;2023-04-01T06:10:15;94484.59;;;15.46
32039;BMP280;18549;42.286;22.688;2023-04-01T06:12:51;94474.00;;;15.52
32039;BMP280;18549;42.286;22.688;2023-04-01T06:15:35;94474.00;;;15.52
32039;BMP280;18549;42.286;22.688;2023-04-01T06:18:34;94463.72;;;15.55
32039;BMP280;18549;42.286;22.688;2023-04-01T06:21:12;94458.25;;;15.59
32039;BMP280;18549;42.286;22.688;2023-04-01T06:23:54;94460.59;;;15.61
32039;BMP280;18549;42.286;22.688;2023-04-01T06:26:30;94448.09;;;15.61
32039;BMP280;18549;42.286;22.688;2023-04-01T06:35:22;94467.00;;;15.63
32039;BMP280;18549;42.286;22.688;2023-04-01T06:38:07;94463.72;;;15.63
32039;BMP280;18549;42.286;22.688;2023-04-01T06:40:53;94474.34;;;15.65
32039;BMP280;18549;42.286;22.688;2023-04-01T06:43:25;94466.38;;;15.69
32039;BMP280;18549;42.286;22.688;2023-04-01T06:45:58;94460.16;;;15.73
32039;BMP280;18549;42.286;22.688;2023-04-01T06:48:50;94454.97;;;15.75
32039;BMP280;18549;42.286;22.688;2023-04-01T06:51:31;94453.13;;;15.77
32039;BMP280;18549;42.286;22.688;2023-04-01T06:54:04;94451.25;;;15.79
32039;BMP280;18549;42.286;22.688;2023-04-01T06:56:33;94449.53;;;15.79
32039;BMP280;18549;42.286;22.688;2023-04-01T06:59:05;94443.94;;;15.77
32039;BMP280;18549;42.286;22.688;2023-04-01T07:01:37;94452.03;;;15.79
32039;BMP280;18549;42.286;22.688;2023-04-01T07:04:06;94447.97;;;15.78
32039;BMP280;18549;42.286;22.688;2023-04-01T07:06:39;94459.84;;;15.76
32039;BMP280;18549;42.286;22.688;2023-04-01T07:09:12;94453.75;;;15.79
32039;BMP280;18549;42.286;22.688;2023-04-01T07:11:40;94430.03;;;15.83
32039;BMP280;18549;42.286;22.688;2023-04-01T07:14:13;94428.47;;;15.89
32039;BMP280;18549;42.286;22.688;2023-04-01T07:16:46;94432.22;;;15.93
32039;BMP280;18549;42.286;22.688;2023-04-01T07:19:19;94434.84;;;16.00
32039;BMP280;18549;42.286;22.688;2023-04-01T07:21:51;94435.19;;;16.05
32039;BMP280;18549;42.286;22.688;2023-04-01T07:24:22;94433.12;;;16.08
32039;BMP280;18549;42.286;22.688;2023-04-01T07:26:53;94429.87;;;16.16
32039;BMP280;18549;42.286;22.688;2023-04-01T07:29:21;94423.78;;;16.18
32039;BMP280;18549;42.286;22.688;2023-04-01T07:32:02;94419.41;;;16.28
32039;BMP280;18549;42.286;22.688;2023-04-01T07:34:36;94419.25;;;16.29
32039;BMP280;18549;42.286;22.688;2023-04-01T07:37:12;94405.50;;;16.41
32039;BMP280;18549;42.286;22.688;2023-04-01T07:39:48;94404.38;;;16.36
32039;BMP280;18549;42.286;22.688;2023-04-01T07:42:27;94396.25;;;16.42
32039;BMP280;18549;42.286;22.688;2023-04-01T07:45:05;94403.59;;;16.43
32039;BMP280;18549;42.286;22.688;2023-04-01T07:47:49;94406.09;;;16.51
32039;BMP280;18549;42.286;22.688;2023-04-01T07:50:22;94383.97;;;16.70
32039;BMP280;18549;42.286;22.688;2023-04-01T07:53:02;94361.59;;;16.77
32039;BMP280;18549;42.286;22.688;2023-04-01T07:55:38;94349.84;;;16.77
32039;BMP280;18549;42.286;22.688;2023-04-01T07:58:12;94349.22;;;16.83
32039;BMP280;18549;42.286;22.688;2023-04-01T08:00:47;94337.59;;;16.90
32039;BMP280;18549;42.286;22.688;2023-04-01T08:03:31;94330.84;;;16.98
32039;BMP280;18549;42.286;22.688;2023-04-01T08:06:04;94320.38;;;16.95
32039;BMP280;18549;42.286;22.688;2023-04-01T08:08:52;94308.53;;;16.89
32039;BMP280;18549;42.286;22.688;2023-04-01T08:11:32;94292.69;;;16.96
32039;BMP280;18549;42.286;22.688;2023-04-01T08:14:10;94296.50;;;17.07
32039;BMP280;18549;42.286;22.688;2023-04-01T08:16:46;94284.91;;;17.14
32039;BMP280;18549;42.286;22.688;2023-04-01T08:19:21;94275.78;;;17.20
32039;BMP280;18549;42.286;22.688;2023-04-01T08:21:52;94279.38;;;17.26
32039;BMP280;18549;42.286;22.688;2023-04-01T08:24:27;94277.56;;;17.34
32039;BMP280;18549;42.286;22.688;2023-04-01T08:26:59;94267.34;;;17.44
32039;BMP280;18549;42.286;22.688;2023-04-01T08:29:32;94264.88;;;17.58
32039;BMP280;18549;42.286;22.688;2023-04-01T08:32:06;94264.16;;;17.64
32039;BMP280;18549;42.286;22.688;2023-04-01T08:34:38;94246.47;;;17.65
32039;BMP280;18549;42.286;22.688;2023-04-01T08:37:10;94250.38;;;17.82
32039;BMP280;18549;42.286;22.688;2023-04-01T08:39:46;94242.69;;;17.83
32039;BMP280;18549;42.286;22.688;2023-04-01T08:42:31;94228.69;;;17.89
32039;BMP280;18549;42.286;22.688;2023-04-01T08:45:26;94212.88;;;17.88
32039;BMP280;18549;42.286;22.688;2023-04-01T08:48:14;94201.72;;;17.91
32039;BMP280;18549;42.286;22.688;2023-04-01T08:53:58;94203.72;;;17.95
32039;BMP280;18549;42.286;22.688;2023-04-01T08:56:34;94200.03;;;18.06
32039;BMP280;18549;42.286;22.688;2023-04-01T08:59:19;94191.88;;;18.18
32039;BMP280;18549;42.286;22.688;2023-04-01T09:02:03;94188.72;;;18.30
32039;BMP280;18549;42.286;22.688;2023-04-01T09:04:44;94189.31;;;18.47
32039;BMP280;18549;42.286;22.688;2023-04-01T09:07:28;94198.09;;;18.57
32039;BMP280;18549;42.286;22.688;2023-04-01T09:13:08;94189.53;;;18.31
32039;BMP280;18549;42.286;22.688;2023-04-01T09:15:50;94177.25;;;18.36
32039;BMP280;18549;42.286;22.688;2023-04-01T09:18:38;94178.03;;;18.22
32039;BMP280;18549;42.286;22.688;2023-04-01T09:24:40;94167.94;;;18.16
32039;BMP280;18549;42.286;22.688;2023-04-01T09:27:14;94165.00;;;18.12
32039;BMP280;18549;42.286;22.688;2023-04-01T09:33:18;94168.91;;;18.15
32039;BMP280;18549;42.286;22.688;2023-04-01T09:35:52;94157.75;;;18.17
32039;BMP280;18549;42.286;22.688;2023-04-01T09:38:28;94158.59;;;18.24
32039;BMP280;18549;42.286;22.688;2023-04-01T09:40:57;94150.09;;;18.25
32039;BMP280;18549;42.286;22.688;2023-04-01T09:43:30;94143.34;;;18.25
32039;BMP280;18549;42.286;22.688;2023-04-01T09:46:10;94137.19;;;18.28
32039;BMP280;18549;42.286;22.688;2023-04-01T09:51:53;94125.88;;;18.32
32039;BMP280;18549;42.286;22.688;2023-04-01T09:54:40;94129.66;;;18.42
32039;BMP280;18549;42.286;22.688;2023-04-01T10:00:37;94132.78;;;18.30
32039;BMP280;18549;42.286;22.688;2023-04-01T10:09:53;94129.12;;;18.47
32039;BMP280;18549;42.286;22.688;2023-04-01T10:12:55;94121.59;;;18.47
32039;BMP280;18549;42.286;22.688;2023-04-01T10:19:10;94101.22;;;18.56
32039;BMP280;18549;42.286;22.688;2023-04-01T10:25:05;94100.78;;;18.73
32039;BMP280;18549;42.286;22.688;2023-04-01T10:31:10;94097.28;;;18.68
32039;BMP280;18549;42.286;22.688;2023-04-01T10:34:00;94084.97;;;18.73
32039;BMP280;18549;42.286;22.688;2023-04-01T10:36:47;94085.13;;;18.71
32039;BMP280;18549;42.286;22.688;2023-04-01T10:43:06;94075.56;;;18.81
32039;BMP280;18549;42.286;22.688;2023-04-01T10:46:03;94063.66;;;18.89
32039;BMP280;18549;42.286;22.688;2023-04-01T10:49:02;94044.69;;;19.08
32039;BMP280;18549;42.286;22.688;2023-04-01T10:51:59;94053.19;;;19.07
32039;BMP280;18549;42.286;22.688;2023-04-01T10:54:44;94072.91;;;19.10
32039;BMP280;18549;42.286;22.688;2023-04-01T10:57:36;94081.19;;;19.04
32039;BMP280;18549;42.286;22.688;2023-04-01T11:00:24;94122.19;;;18.90
32039;BMP280;18549;42.286;22.688;2023-04-01T11:15:41;94321.03;;;16.89
32039;BMP280;18549;42.286;22.688;2023-04-01T11:21:42;94357.41;;;16.61
32039;BMP280;18549;42.286;22.688;2023-04-01T11:24:38;94375.34;;;16.35
32039;BMP280;18549;42.286;22.688;2023-04-01T11:27:25;94355.97;;;16.29
32039;BMP280;18549;42.286;22.688;2023-04-01T11:30:20;94337.53;;;16.30
32039;BMP280;18549;42.286;22.688;2023-04-01T11:32:57;94345.19;;;16.28
32039;BMP280;18549;42.286;22.688;2023-04-01T11:38:46;94337.94;;;16.57
32039;BMP280;18549;42.286;22.688;2023-04-01T11:41:27;94322.59;;;16.60
32039;BMP280;18549;42.286;22.688;2023-04-01T11:44:12;94328.94;;;16.70
32039;BMP280;18549;42.286;22.688;2023-04-01T11:46:48;94291.94;;;16.58
32039;BMP280;18549;42.286;22.688;2023-04-01T11:49:33;94286.88;;;16.74
32039;BMP280;18549;42.286;22.688;2023-04-01T11:52:17;94291.31;;;16.86
32039;BMP280;18549;42.286;22.688;2023-04-01T11:55:06;94291.78;;;17.12
32039;BMP280;18549;42.286;22.688;2023-04-01T11:57:51;94290.44;;;17.31
32039;BMP280;18549;42.286;22.688;2023-04-01T12:00:32;94301.72;;;17.50
32039;BMP280;18549;42.286;22.688;2023-04-01T12:03:17;94294.19;;;17.72
32039;BMP280;18549;42.286;22.688;2023-04-01T12:05:53;94291.28;;;17.97
32039;BMP280;18549;42.286;22.688;2023-04-01T12:08:31;94299.69;;;18.18
32039;BMP280;18549;42.286;22.688;2023-04-01T12:11:05;94298.75;;;18.33
32039;BMP280;18549;42.286;22.688;2023-04-01T12:13:40;94298.31;;;18.30
32039;BMP280;18549;42.286;22.688;2023-04-01T12:16:26;94298.25;;;18.38
32039;BMP280;18549;42.286;22.688;2023-04-01T12:19:00;94310.06;;;18.29
32039;BMP280;18549;42.286;22.688;2023-04-01T12:21:36;94307.94;;;18.26
32039;BMP280;18549;42.286;22.688;2023-04-01T12:27:16;94307.03;;;18.05
32039;BMP280;18549;42.286;22.688;2023-04-01T12:30:00;94302.56;;;17.79
32039;BMP280;18549;42.286;22.688;2023-04-01T12:32:35;94310.94;;;17.71
32039;BMP280;18549;42.286;22.688;2023-04-01T12:35:15;94304.81;;;17.74
32039;BMP280;18549;42.286;22.688;2023-04-01T12:38:02;94306.72;;;17.72
32039;BMP280;18549;42.286;22.688;2023-04-01T12:43:41;94310.47;;;17.53
32039;BMP280;18549;42.286;22.688;2023-04-01T12:46:16;94308.19;;;17.44
32039;BMP280;18549;42.286;22.688;2023-04-01T12:49:30;94297.41;;;17.44
32039;BMP280;18549;42.286;22.688;2023-04-01T12:52:10;94305.63;;;17.30
32039;BMP280;18549;42.286;22.688;2023-04-01T12:57:55;94318.66;;;17.25
32039;BMP280;18549;42.286;22.688;2023-04-01T13:00:46;94281.00;;;17.19
32039;BMP280;18549;42.286;22.688;2023-04-01T13:03:23;94271.34;;;17.08
32039;BMP280;18549;42.286;22.688;2023-04-01T13:06:13;94261.94;;;17.10
32039;BMP280;18549;42.286;22.688;2023-04-01T13:08:44;94261.28;;;17.16
32039;BMP280;18549;42.286;22.688;2023-04-01T13:11:20;94262.66;;;17.41
32039;BMP280;18549;42.286;22.688;2023-04-01T13:14:27;94256.75;;;17.84
32039;BMP280;18549;42.286;22.688;2023-04-01T13:17:02;94250.75;;;18.22
32039;BMP280;18549;42.286;22.688;2023-04-01T13:19:36;94245.28;;;18.47
32039;BMP280;18549;42.286;22.688;2023-04-01T13:22:11;94252.91;;;18.53
32039;BMP280;18549;42.286;22.688;2023-04-01T13:24:45;94244.84;;;18.44
32039;BMP280;18549;42.286;22.688;2023-04-01T13:27:21;94243.12;;;18.30
32039;BMP280;18549;42.286;22.688;2023-04-01T13:30:00;94250.31;;;18.04
32039;BMP280;18549;42.286;22.688;2023-04-01T13:32:34;94267.34;;;17.94
32039;BMP280;18549;42.286;22.688;2023-04-01T13:35:17;94285.19;;;17.91
32039;BMP280;18549;42.286;22.688;2023-04-01T13:37:58;94283.22;;;17.87
32039;BMP280;18549;42.286;22.688;2023-04-01T13:40:45;94272.28;;;17.66
32039;BMP280;18549;42.286;22.688;2023-04-01T13:43:21;94288.16;;;17.44
32039;BMP280;18549;42.286;22.688;2023-04-01T13:46:20;94280.97;;;17.41
32039;BMP280;18549;42.286;22.688;2023-04-01T13:52:06;94261.16;;;17.10
32039;BMP280;18549;42.286;22.688;2023-04-01T13:54:52;94273.03;;;17.16
32039;BMP280;18549;42.286;22.688;2023-04-01T13:57:43;94279.53;;;17.24
32039;BMP280;18549;42.286;22.688;2023-04-01T14:00:25;94282.09;;;17.17
32039;BMP280;18549;42.286;22.688;2023-04-01T14:03:14;94285.88;;;17.05
32039;BMP280;18549;42.286;22.688;2023-04-01T14:06:06;94281.22;;;17.02
32039;BMP280;18549;42.286;22.688;2023-04-01T14:11:32;94240.34;;;17.09
32039;BMP280;18549;42.286;22.688;2023-04-01T14:14:09;94215.09;;;17.18
32039;BMP280;18549;42.286;22.688;2023-04-01T14:17:03;94206.63;;;17.56
32039;BMP280;18549;42.286;22.688;2023-04-01T14:19:56;94197.94;;;17.81
32039;BMP280;18549;42.286;22.688;2023-04-01T14:22:30;94205.03;;;18.06
32039;BMP280;18549;42.286;22.688;2023-04-01T14:28:03;94201.75;;;18.19
32039;BMP280;18549;42.286;22.688;2023-04-01T14:30:52;94196.22;;;18.24
32039;BMP280;18549;42.286;22.688;2023-04-01T14:33:34;94195.47;;;18.30
32039;BMP280;18549;42.286;22.688;2023-04-01T14:36:24;94181.41;;;18.29
32039;BMP280;18549;42.286;22.688;2023-04-01T14:39:02;94189.47;;;18.10
32039;BMP280;18549;42.286;22.688;2023-04-01T14:41:47;94181.78;;;17.83
32039;BMP280;18549;42.286;22.688;2023-04-01T14:44:29;94172.78;;;17.74
32039;BMP280;18549;42.286;22.688;2023-04-01T14:50:10;94191.63;;;17.56
32039;BMP280;18549;42.286;22.688;2023-04-01T14:52:42;94194.13;;;17.56
32039;BMP280;18549;42.286;22.688;2023-04-01T14:55:21;94182.81;;;17.60
32039;BMP280;18549;42.286;22.688;2023-04-01T14:58:10;94178.37;;;17.48
32039;BMP280;18549;42.286;22.688;2023-04-01T15:00:48;94177.84;;;17.38
32039;BMP280;18549;42.286;22.688;2023-04-01T15:03:23;94185.37;;;17.52
32039;BMP280;18549;42.286;22.688;2023-04-01T15:05:56;94184.00;;;17.64
32039;BMP280;18549;42.286;22.688;2023-04-01T15:08:29;94172.53;;;17.69
32039;BMP280;18549;42.286;22.688;2023-04-01T15:11:23;94182.72;;;17.68
32039;BMP280;18549;42.286;22.688;2023-04-01T15:17:03;94171.22;;;17.59
32039;BMP280;18549;42.286;22.688;2023-04-01T15:19:47;94176.16;;;17.67
32039;BMP280;18549;42.286;22.688;2023-04-01T15:22:41;94180.72;;;17.78
32039;BMP280;18549;42.286;22.688;2023-04-01T15:25:31;94181.22;;;17.73
32039;BMP280;18549;42.286;22.688;2023-04-01T15:28:10;94180.41;;;17.81
32039;BMP280;18549;42.286;22.688;2023-04-01T15:30:50;94147.47;;;17.69
32039;BMP280;18549;42.286;22.688;2023-04-01T15:33:39;94171.41;;;17.57
32039;BMP280;18549;42.286;22.688;2023-04-01T15:36:20;94166.56;;;17.56
32039;BMP280;18549;42.286;22.688;2023-04-01T15:38:55;94174.78;;;17.64
32039;BMP280;18549;42.286;22.688;2023-04-01T15:41:28;94201.47;;;17.72
32039;BMP280;18549;42.286;22.688;2023-04-01T15:44:02;94207.94;;;17.66
32039;BMP280;18549;42.286;22.688;2023-04-01T15:46:43;94225.66;;;17.65
32039;BMP280;18549;42.286;22.688;2023-04-01T15:49:20;94241.97;;;17.61
32039;BMP280;18549;42.286;22.688;2023-04-01T15:52:05;94269.50;;;17.47
32039;BMP280;18549;42.286;22.688;2023-04-01T15:55:03;94296.81;;;17.34
32039;BMP280;18549;42.286;22.688;2023-04-01T15:57:41;94312.16;;;17.09
32039;BMP280;18549;42.286;22.688;2023-04-01T16:00:21;94296.78;;;16.89
32039;BMP280;18549;42.286;22.688;2023-04-01T16:02:54;94288.66;;;16.87
32039;BMP280;18549;42.286;22.688;2023-04-01T16:05:33;94293.72;;;17.02
32039;BMP280;18549;42.286;22.688;2023-04-01T16:08:21;94314.81;;;17.15
32039;BMP280;18549;42.286;22.688;2023-04-01T16:11:00;94315.28;;;17.11
32039;BMP280;18549;42.286;22.688;2023-04-01T16:13:41;94320.28;;;17.11